createdAt,value
2022-10-17T00:04:27.694Z,16.21
2022-10-17T00:14:28.114Z,15.90
2022-10-17T00:24:28.141Z,15.93
2022-10-17T00:34:28.452Z,15.87
2022-10-17T00:44:28.470Z,15.80
2022-10-17T00:54:28.790Z,15.87
2022-10-17T01:04:28.818Z,15.67
2022-10-17T01:14:29.147Z,15.59
2022-10-17T01:24:29.177Z,15.75
2022-10-17T01:34:29.494Z,15.65
2022-10-17T01:44:29.519Z,15.75
2022-10-17T01:54:29.843Z,15.60
2022-10-17T02:04:29.965Z,15.68
2022-10-17T02:14:30.214Z,15.84
2022-10-17T02:24:30.229Z,15.62
2022-10-17T02:34:30.536Z,15.53
2022-10-17T02:44:30.566Z,15.39
2022-10-17T02:54:30.888Z,15.72
2022-10-17T03:04:30.936Z,15.71
2022-10-17T03:14:31.243Z,16.00
2022-10-17T03:24:31.286Z,15.54
2022-10-17T03:34:31.594Z,14.62
2022-10-17T03:44:31.634Z,14.04
2022-10-17T03:54:32.041Z,13.51
2022-10-17T04:04:32.079Z,13.23
2022-10-17T04:14:32.390Z,12.62
2022-10-17T04:24:32.426Z,12.41
2022-10-17T04:34:32.763Z,12.21
2022-10-17T04:44:32.778Z,12.14
2022-10-17T04:54:33.098Z,11.80
2022-10-17T05:04:33.123Z,11.60
2022-10-17T05:14:33.444Z,11.76
2022-10-17T05:24:33.471Z,11.64
2022-10-17T05:34:33.794Z,11.57
2022-10-17T05:44:33.813Z,11.07
2022-10-17T05:54:34.327Z,11.17
2022-10-17T06:04:34.137Z,10.97
2022-10-17T06:14:34.395Z,10.78
2022-10-17T06:24:34.617Z,10.74
2022-10-17T06:34:34.946Z,10.51
2022-10-17T06:44:34.986Z,10.78
2022-10-17T06:54:35.301Z,11.29
2022-10-17T07:04:35.363Z,14.02
2022-10-17T07:14:35.645Z,15.69
2022-10-17T07:24:35.671Z,16.23
2022-10-17T07:34:35.999Z,16.78
2022-10-17T07:44:36.025Z,17.34
2022-10-17T07:54:36.370Z,17.71
2022-10-17T08:04:36.428Z,18.17
2022-10-17T08:14:37.719Z,18.58
2022-10-17T08:24:36.762Z,18.92
2022-10-17T08:34:37.047Z,19.33
2022-10-17T08:44:37.079Z,19.59
2022-10-17T08:54:37.399Z,19.91
2022-10-17T09:04:37.430Z,20.14
2022-10-17T09:14:37.739Z,19.95
2022-10-17T09:24:37.764Z,20.33
2022-10-17T09:34:38.098Z,20.74
2022-10-17T09:44:38.130Z,20.87
2022-10-17T09:54:38.442Z,21.37
2022-10-17T10:04:47.025Z,22.17
2022-10-17T10:14:39.717Z,21.75
2022-10-17T10:24:38.854Z,22.14
2022-10-17T10:34:39.086Z,22.09
2022-10-17T10:44:39.332Z,22.49
2022-10-17T11:04:39.876Z,22.79
2022-10-17T11:14:39.908Z,23.38
2022-10-17T11:24:40.230Z,23.50
2022-10-17T11:34:40.272Z,23.04
2022-10-17T11:44:40.782Z,23.84
2022-10-17T11:54:40.621Z,23.65
2022-10-17T12:04:43.740Z,23.68
2022-10-17T12:14:42.093Z,23.95
2022-10-17T12:24:41.375Z,24.25
2022-10-17T12:34:41.406Z,24.22
2022-10-17T12:44:41.729Z,24.96
2022-10-17T12:54:53.564Z,24.83
2022-10-17T13:04:42.910Z,24.93
2022-10-17T13:14:42.208Z,24.62
2022-10-17T13:24:42.226Z,24.55
2022-10-17T13:34:42.457Z,24.47
2022-10-17T13:44:43.539Z,24.95
2022-10-17T13:54:42.839Z,25.08
2022-10-17T14:05:16.170Z,24.50
2022-10-17T14:15:08.698Z,24.08
2022-10-17T14:24:44.400Z,23.90
2022-10-17T14:34:43.856Z,23.32
2022-10-17T14:44:43.890Z,23.15
2022-10-17T14:54:44.205Z,22.37
2022-10-17T15:04:44.225Z,22.31
2022-10-17T15:14:44.551Z,21.59
2022-10-17T15:24:44.623Z,21.42
2022-10-17T15:34:44.703Z,21.22
2022-10-17T15:44:44.746Z,20.67
2022-10-17T15:54:45.167Z,20.89
2022-10-17T16:04:45.218Z,20.54
2022-10-17T16:14:45.503Z,20.06
2022-10-17T16:24:45.541Z,20.35
2022-10-17T16:34:45.878Z,19.48
2022-10-17T16:44:45.909Z,19.63
2022-10-17T16:54:46.199Z,19.10
2022-10-17T17:04:46.220Z,18.95
2022-10-17T17:14:46.549Z,18.33
2022-10-17T17:24:46.887Z,18.29
2022-10-17T17:34:46.954Z,18.26
2022-10-17T17:44:47.140Z,17.59
2022-10-17T17:54:47.238Z,16.34
2022-10-17T18:04:47.354Z,16.15
2022-10-17T18:14:47.708Z,15.96
2022-10-17T18:24:47.829Z,15.67
2022-10-17T18:34:47.902Z,15.76
2022-10-17T18:44:48.117Z,15.46
2022-10-17T18:54:48.278Z,15.28
2022-10-17T19:14:48.601Z,15.10
2022-10-17T19:24:48.552Z,15.21
2022-10-17T19:34:48.936Z,15.03
2022-10-17T19:44:48.885Z,15.07
2022-10-17T19:54:49.246Z,14.94
2022-10-17T20:04:54.565Z,14.60
2022-10-17T20:14:50.684Z,14.68
2022-10-17T20:24:49.672Z,14.47
2022-10-17T20:34:49.763Z,14.40
2022-10-17T20:44:49.913Z,14.25
2022-10-17T20:54:49.930Z,14.18
2022-10-17T21:04:50.263Z,14.04
2022-10-17T21:14:50.291Z,13.85
2022-10-17T21:24:51.638Z,13.70
2022-10-17T21:34:50.649Z,13.42
2022-10-17T21:44:51.997Z,14.89
2022-10-17T21:54:51.019Z,15.90
2022-10-17T22:04:51.316Z,15.97
2022-10-17T22:14:51.346Z,15.51
2022-10-17T22:24:51.661Z,15.36
2022-10-17T22:34:51.682Z,15.02
2022-10-17T22:44:52.017Z,14.83
2022-10-17T22:54:52.039Z,15.39
2022-10-17T23:04:52.467Z,15.50
2022-10-17T23:14:52.564Z,15.06
2022-10-17T23:24:52.727Z,14.78
2022-10-17T23:34:52.752Z,14.73
2022-10-17T23:44:53.074Z,14.00
2022-10-17T23:54:53.100Z,13.84
